sensor_id;sensor_type;location;lat;lon;timestamp;pressure;altitude;pressure_sealevel;temperature;humidity
41306;BME280;27051;50.376;19.152;2022-12-07T00:01:29;97636.33;;;3.95;66.89
41306;BME280;27051;50.376;19.152;2022-12-07T00:04:00;97631.59;;;3.91;67.05
41306;BME280;27051;50.376;19.152;2022-12-07T00:06:28;97636.39;;;3.92;66.97
41306;BME280;27051;50.376;19.152;2022-12-07T00:08:54;97634.80;;;3.91;67.17
41306;BME280;27051;50.376;19.152;2022-12-07T00:11:22;97640.05;;;3.94;66.96
41306;BME280;27051;50.376;19.152;2022-12-07T00:13:57;97636.69;;;3.90;67.08
41306;BME280;27051;50.376;19.152;2022-12-07T00:16:28;97637.30;;;3.87;67.08
41306;BME280;27051;50.376;19.152;2022-12-07T00:18:56;97638.50;;;3.93;67.22
41306;BME280;27051;50.376;19.152;2022-12-07T00:21:26;97630.75;;;3.94;67.14
41306;BME280;27051;50.376;19.152;2022-12-07T00:23:56;97629.97;;;3.93;67.19
41306;BME280;27051;50.376;19.152;2022-12-07T00:26:29;97624.22;;;4.00;67.26
41306;BME280;27051;50.376;19.152;2022-12-07T00:28:57;97626.27;;;4.03;67.14
41306;BME280;27051;50.376;19.152;2022-12-07T00:31:28;97629.15;;;4.04;67.11
41306;BME280;27051;50.376;19.152;2022-12-07T00:33:57;97620.75;;;3.99;67.04
41306;BME280;27051;50.376;19.152;2022-12-07T00:36:24;97620.05;;;3.96;67.09
41306;BME280;27051;50.376;19.152;2022-12-07T00:38:53;97617.09;;;3.98;67.25
41306;BME280;27051;50.376;19.152;2022-12-07T00:41:22;97620.23;;;4.00;67.24
41306;BME280;27051;50.376;19.152;2022-12-07T00:43:50;97614.25;;;3.94;67.01
41306;BME280;27051;50.376;19.152;2022-12-07T00:46:19;97620.11;;;3.94;67.10
41306;BME280;27051;50.376;19.152;2022-12-07T00:48:47;97611.84;;;3.95;67.20
41306;BME280;27051;50.376;19.152;2022-12-07T00:51:15;97610.93;;;4.00;67.35
41306;BME280;27051;50.376;19.152;2022-12-07T00:53:44;97609.20;;;4.04;67.25
41306;BME280;27051;50.376;19.152;2022-12-07T00:56:20;97603.95;;;4.01;67.13
41306;BME280;27051;50.376;19.152;2022-12-07T00:58:57;97607.80;;;4.06;67.15
41306;BME280;27051;50.376;19.152;2022-12-07T01:01:29;97612.55;;;3.98;67.22
41306;BME280;27051;50.376;19.152;2022-12-07T01:03:57;97611.56;;;4.05;67.31
41306;BME280;27051;50.376;19.152;2022-12-07T01:06:25;97610.33;;;4.11;67.20
41306;BME280;27051;50.376;19.152;2022-12-07T01:08:52;97615.02;;;4.14;67.14
41306;BME280;27051;50.376;19.152;2022-12-07T01:11:28;97609.18;;;4.15;67.14
41306;BME280;27051;50.376;19.152;2022-12-07T01:13:57;97607.52;;;4.17;66.99
41306;BME280;27051;50.376;19.152;2022-12-07T01:16:26;97610.19;;;4.17;67.06
41306;BME280;27051;50.376;19.152;2022-12-07T01:18:55;97607.52;;;4.17;66.99
41306;BME280;27051;50.376;19.152;2022-12-07T01:21:29;97601.50;;;4.13;66.88
41306;BME280;27051;50.376;19.152;2022-12-07T01:23:57;97599.20;;;4.09;66.96
41306;BME280;27051;50.376;19.152;2022-12-07T01:26:25;97600.31;;;4.08;66.95
41306;BME280;27051;50.376;19.152;2022-12-07T01:28:52;97600.31;;;4.08;67.00
41306;BME280;27051;50.376;19.152;2022-12-07T01:31:22;97598.84;;;4.13;67.12
41306;BME280;27051;50.376;19.152;2022-12-07T01:33:53;97600.80;;;4.19;67.12
41306;BME280;27051;50.376;19.152;2022-12-07T01:36:26;97599.03;;;4.26;67.08
41306;BME280;27051;50.376;19.152;2022-12-07T01:39:00;97595.05;;;4.26;66.89
41306;BME280;27051;50.376;19.152;2022-12-07T01:41:32;97598.78;;;4.25;66.85
41306;BME280;27051;50.376;19.152;2022-12-07T01:46:52;97593.45;;;4.25;66.89
41306;BME280;27051;50.376;19.152;2022-12-07T01:49:48;97594.34;;;4.23;66.77
41306;BME280;27051;50.376;19.152;2022-12-07T01:52:25;97591.56;;;4.17;66.73
41306;BME280;27051;50.376;19.152;2022-12-07T01:54:53;97594.37;;;4.11;66.93
41306;BME280;27051;50.376;19.152;2022-12-07T01:57:21;97593.74;;;4.14;66.97
41306;BME280;27051;50.376;19.152;2022-12-07T01:59:49;97595.41;;;4.13;66.99
41306;BME280;27051;50.376;19.152;2022-12-07T02:02:20;97584.92;;;4.17;67.01
41306;BME280;27051;50.376;19.152;2022-12-07T02:04:53;97578.05;;;4.16;66.98
41306;BME280;27051;50.376;19.152;2022-12-07T02:07:23;97586.50;;;4.18;66.81
41306;BME280;27051;50.376;19.152;2022-12-07T02:09:50;97586.25;;;4.17;67.00
41306;BME280;27051;50.376;19.152;2022-12-07T02:12:17;97587.02;;;4.17;66.97
41306;BME280;27051;50.376;19.152;2022-12-07T02:14:44;97583.44;;;4.22;67.03
41306;BME280;27051;50.376;19.152;2022-12-07T02:25:14;97584.96;;;4.34;66.88
41306;BME280;27051;50.376;19.152;2022-12-07T02:30:55;97580.89;;;4.28;66.87
41306;BME280;27051;50.376;19.152;2022-12-07T02:34:14;97578.23;;;4.28;66.98
41306;BME280;27051;50.376;19.152;2022-12-07T02:36:10;97584.00;;;4.30;66.73
41306;BME280;27051;50.376;19.152;2022-12-07T02:38:41;97581.41;;;4.27;66.81
41306;BME280;27051;50.376;19.152;2022-12-07T02:41:30;97581.12;;;4.29;67.02
41306;BME280;27051;50.376;19.152;2022-12-07T02:44:06;97577.83;;;4.32;66.93
41306;BME280;27051;50.376;19.152;2022-12-07T02:46:37;97574.17;;;4.30;66.78
41306;BME280;27051;50.376;19.152;2022-12-07T02:49:10;97571.81;;;4.29;66.77
41306;BME280;27051;50.376;19.152;2022-12-07T02:51:42;97572.91;;;4.28;66.72
41306;BME280;27051;50.376;19.152;2022-12-07T02:54:14;97575.17;;;4.23;66.85
41306;BME280;27051;50.376;19.152;2022-12-07T02:56:49;97568.19;;;4.25;66.90
41306;BME280;27051;50.376;19.152;2022-12-07T03:11:00;97551.78;;;4.23;66.96
41306;BME280;27051;50.376;19.152;2022-12-07T03:13:50;97549.20;;;4.29;67.00
41306;BME280;27051;50.376;19.152;2022-12-07T03:16:37;97557.40;;;4.21;66.71
41306;BME280;27051;50.376;19.152;2022-12-07T03:19:09;97556.63;;;4.21;67.00
41306;BME280;27051;50.376;19.152;2022-12-07T03:21:52;97551.38;;;4.27;66.94
41306;BME280;27051;50.376;19.152;2022-12-07T03:24:24;97546.53;;;4.29;66.82
41306;BME280;27051;50.376;19.152;2022-12-07T03:26:53;97551.08;;;4.28;66.84
41306;BME280;27051;50.376;19.152;2022-12-07T03:29:38;97552.00;;;4.24;66.71
41306;BME280;27051;50.376;19.152;2022-12-07T03:32:16;97544.80;;;4.16;66.73
41306;BME280;27051;50.376;19.152;2022-12-07T03:34:52;97544.47;;;4.17;66.90
41306;BME280;27051;50.376;19.152;2022-12-07T03:42:53;97541.52;;;4.27;66.90
41306;BME280;27051;50.376;19.152;2022-12-07T03:45:24;97536.34;;;4.22;66.66
41306;BME280;27051;50.376;19.152;2022-12-07T03:48:07;97541.98;;;4.21;66.74
41306;BME280;27051;50.376;19.152;2022-12-07T03:53:22;97533.38;;;4.24;66.95
41306;BME280;27051;50.376;19.152;2022-12-07T03:55:50;97537.38;;;4.24;66.73
41306;BME280;27051;50.376;19.152;2022-12-07T03:58:20;97534.31;;;4.19;66.91
41306;BME280;27051;50.376;19.152;2022-12-07T04:00:49;97533.61;;;4.25;66.89
41306;BME280;27051;50.376;19.152;2022-12-07T04:03:17;97536.05;;;4.24;66.69
41306;BME280;27051;50.376;19.152;2022-12-07T04:05:44;97535.09;;;4.20;66.66
41306;BME280;27051;50.376;19.152;2022-12-07T04:08:11;97538.22;;;4.13;66.74
41306;BME280;27051;50.376;19.152;2022-12-07T04:10:38;97534.31;;;4.19;66.94
41306;BME280;27051;50.376;19.152;2022-12-07T04:13:05;97530.50;;;4.23;66.89
41306;BME280;27051;50.376;19.152;2022-12-07T04:15:32;97532.35;;;4.22;66.73
41306;BME280;27051;50.376;19.152;2022-12-07T04:17:59;97533.05;;;4.17;66.88
41306;BME280;27051;50.376;19.152;2022-12-07T04:20:25;97525.92;;;4.14;66.96
41306;BME280;27051;50.376;19.152;2022-12-07T04:22:52;97531.72;;;4.17;67.00
41306;BME280;27051;50.376;19.152;2022-12-07T04:25:19;97529.84;;;4.17;66.88
41306;BME280;27051;50.376;19.152;2022-12-07T04:27:46;97532.91;;;4.13;66.78
41306;BME280;27051;50.376;19.152;2022-12-07T04:30:12;97532.09;;;4.04;66.80
41306;BME280;27051;50.376;19.152;2022-12-07T04:32:39;97533.97;;;4.03;66.95
41306;BME280;27051;50.376;19.152;2022-12-07T04:35:07;97531.53;;;4.04;67.00
41306;BME280;27051;50.376;19.152;2022-12-07T04:37:34;97535.00;;;4.05;67.09
41306;BME280;27051;50.376;19.152;2022-12-07T04:40:01;97537.19;;;4.11;67.11
41306;BME280;27051;50.376;19.152;2022-12-07T04:42:29;97535.02;;;4.13;66.87
41306;BME280;27051;50.376;19.152;2022-12-07T04:44:55;97535.97;;;4.18;66.98
41306;BME280;27051;50.376;19.152;2022-12-07T04:47:22;97542.36;;;4.17;66.85
41306;BME280;27051;50.376;19.152;2022-12-07T04:49:48;97531.98;;;4.18;66.93
41306;BME280;27051;50.376;19.152;2022-12-07T04:52:15;97527.59;;;4.22;66.90
41306;BME280;27051;50.376;19.152;2022-12-07T04:54:42;97533.31;;;4.26;66.81
41306;BME280;27051;50.376;19.152;2022-12-07T04:57:08;97533.94;;;4.23;66.81
41306;BME280;27051;50.376;19.152;2022-12-07T04:59:35;97531.35;;;4.21;66.62
41306;BME280;27051;50.376;19.152;2022-12-07T05:02:02;97531.83;;;4.23;66.76
41306;BME280;27051;50.376;19.152;2022-12-07T05:04:29;97527.44;;;4.18;66.46
41306;BME280;27051;50.376;19.152;2022-12-07T05:06:55;97533.61;;;4.16;66.67
41306;BME280;27051;50.376;19.152;2022-12-07T05:09:22;97529.84;;;4.17;66.71
41306;BME280;27051;50.376;19.152;2022-12-07T05:11:49;97529.91;;;4.14;66.61
41306;BME280;27051;50.376;19.152;2022-12-07T05:14:18;97537.59;;;4.07;66.75
41306;BME280;27051;50.376;19.152;2022-12-07T05:16:48;97538.26;;;4.02;66.65
41306;BME280;27051;50.376;19.152;2022-12-07T05:19:17;97536.00;;;3.98;66.66
41306;BME280;27051;50.376;19.152;2022-12-07T05:21:44;97539.58;;;3.93;66.60
41306;BME280;27051;50.376;19.152;2022-12-07T05:24:13;97538.02;;;3.92;66.64
41306;BME280;27051;50.376;19.152;2022-12-07T05:26:41;97540.20;;;3.90;66.73
41306;BME280;27051;50.376;19.152;2022-12-07T05:29:15;97539.63;;;3.82;66.65
41306;BME280;27051;50.376;19.152;2022-12-07T05:31:39;97541.48;;;3.81;67.01
41306;BME280;27051;50.376;19.152;2022-12-07T05:34:07;97541.33;;;3.78;66.77
41306;BME280;27051;50.376;19.152;2022-12-07T05:36:33;97544.21;;;3.79;67.03
41306;BME280;27051;50.376;19.152;2022-12-07T05:39:00;97538.30;;;3.82;66.93
41306;BME280;27051;50.376;19.152;2022-12-07T05:41:27;97533.44;;;3.84;67.02
41306;BME280;27051;50.376;19.152;2022-12-07T05:43:54;97537.28;;;3.89;67.07
41306;BME280;27051;50.376;19.152;2022-12-07T05:46:21;97532.16;;;3.93;66.89
41306;BME280;27051;50.376;19.152;2022-12-07T05:48:48;97536.44;;;3.91;66.95
41306;BME280;27051;50.376;19.152;2022-12-07T05:51:14;97533.14;;;3.85;66.69
41306;BME280;27051;50.376;19.152;2022-12-07T05:53:41;97534.41;;;3.88;66.95
41306;BME280;27051;50.376;19.152;2022-12-07T05:56:08;97530.40;;;3.79;66.73
41306;BME280;27051;50.376;19.152;2022-12-07T05:58:35;97534.13;;;3.78;67.04
41306;BME280;27051;50.376;19.152;2022-12-07T06:01:02;97537.91;;;3.86;67.10
41306;BME280;27051;50.376;19.152;2022-12-07T06:03:28;97535.44;;;3.89;67.05
41306;BME280;27051;50.376;19.152;2022-12-07T06:05:55;97538.80;;;3.93;67.01
41306;BME280;27051;50.376;19.152;2022-12-07T06:08:22;97544.11;;;3.93;67.05
41306;BME280;27051;50.376;19.152;2022-12-07T06:10:48;97541.53;;;3.90;66.69
41306;BME280;27051;50.376;19.152;2022-12-07T06:13:15;97548.13;;;3.81;66.85
41306;BME280;27051;50.376;19.152;2022-12-07T06:15:41;97541.89;;;3.86;67.03
41306;BME280;27051;50.376;19.152;2022-12-07T06:18:08;97543.69;;;3.79;66.78
41306;BME280;27051;50.376;19.152;2022-12-07T06:20:35;97542.43;;;3.77;67.08
41306;BME280;27051;50.376;19.152;2022-12-07T06:23:01;97550.78;;;3.81;67.11
41306;BME280;27051;50.376;19.152;2022-12-07T06:25:28;97552.44;;;3.80;67.08
41306;BME280;27051;50.376;19.152;2022-12-07T06:27:55;97558.24;;;3.82;67.21
41306;BME280;27051;50.376;19.152;2022-12-07T06:30:21;97558.81;;;3.90;67.26
41306;BME280;27051;50.376;19.152;2022-12-07T06:32:48;97553.42;;;3.93;67.06
41306;BME280;27051;50.376;19.152;2022-12-07T06:35:15;97561.77;;;3.88;67.02
41306;BME280;27051;50.376;19.152;2022-12-07T06:37:41;97562.02;;;3.89;66.96
41306;BME280;27051;50.376;19.152;2022-12-07T06:40:09;97556.92;;;3.90;67.08
41306;BME280;27051;50.376;19.152;2022-12-07T06:42:36;97563.42;;;3.87;66.85
41306;BME280;27051;50.376;19.152;2022-12-07T06:45:03;97569.09;;;3.83;66.90
41306;BME280;27051;50.376;19.152;2022-12-07T06:47:30;97565.61;;;3.74;66.81
41306;BME280;27051;50.376;19.152;2022-12-07T06:49:57;97560.07;;;3.73;67.06
41306;BME280;27051;50.376;19.152;2022-12-07T06:52:24;97563.28;;;3.72;67.18
41306;BME280;27051;50.376;19.152;2022-12-07T06:54:50;97561.56;;;3.76;67.26
41306;BME280;27051;50.376;19.152;2022-12-07T06:57:17;97563.38;;;3.78;67.10
41306;BME280;27051;50.376;19.152;2022-12-07T06:59:44;97563.92;;;3.78;67.03
41306;BME280;27051;50.376;19.152;2022-12-07T07:02:10;97565.02;;;3.77;66.99
41306;BME280;27051;50.376;19.152;2022-12-07T07:04:37;97576.50;;;3.75;67.15
41306;BME280;27051;50.376;19.152;2022-12-07T07:07:03;97574.07;;;3.76;67.22
41306;BME280;27051;50.376;19.152;2022-12-07T07:09:30;97574.55;;;3.78;67.15
41306;BME280;27051;50.376;19.152;2022-12-07T07:11:57;97574.71;;;3.81;67.06
41306;BME280;27051;50.376;19.152;2022-12-07T07:14:23;97565.87;;;3.75;67.00
41306;BME280;27051;50.376;19.152;2022-12-07T07:16:50;97569.46;;;3.79;67.28
41306;BME280;27051;50.376;19.152;2022-12-07T07:19:16;97566.73;;;3.81;67.17
41306;BME280;27051;50.376;19.152;2022-12-07T07:21:44;97569.66;;;3.82;67.14
41306;BME280;27051;50.376;19.152;2022-12-07T07:24:10;97572.53;;;3.83;67.10
41306;BME280;27051;50.376;19.152;2022-12-07T07:26:37;97576.30;;;3.82;66.93
41306;BME280;27051;50.376;19.152;2022-12-07T07:29:04;97574.07;;;3.76;66.98
41306;BME280;27051;50.376;19.152;2022-12-07T07:31:30;97573.91;;;3.72;67.18
41306;BME280;27051;50.376;19.152;2022-12-07T07:33:57;97569.53;;;3.76;67.36
41306;BME280;27051;50.376;19.152;2022-12-07T07:36:24;97580.09;;;3.79;67.25
41306;BME280;27051;50.376;19.152;2022-12-07T07:38:50;97585.48;;;3.76;67.24
41306;BME280;27051;50.376;19.152;2022-12-07T07:41:17;97581.20;;;3.78;67.23
41306;BME280;27051;50.376;19.152;2022-12-07T07:43:43;97579.16;;;3.75;67.13
41306;BME280;27051;50.376;19.152;2022-12-07T07:46:10;97573.13;;;3.72;67.19
41306;BME280;27051;50.376;19.152;2022-12-07T07:48:36;97583.77;;;3.60;67.01
41306;BME280;27051;50.376;19.152;2022-12-07T07:51:07;97582.77;;;3.59;67.38
41306;BME280;27051;50.376;19.152;2022-12-07T07:53:34;97574.34;;;3.65;67.59
41306;BME280;27051;50.376;19.152;2022-12-07T07:56:01;97581.27;;;3.75;67.45
41306;BME280;27051;50.376;19.152;2022-12-07T07:58:29;97583.08;;;3.77;67.50
41306;BME280;27051;50.376;19.152;2022-12-07T08:00:55;97585.46;;;3.87;67.41
41306;BME280;27051;50.376;19.152;2022-12-07T08:03:22;97587.80;;;3.89;67.34
41306;BME280;27051;50.376;19.152;2022-12-07T08:05:49;97587.57;;;3.88;67.27
41306;BME280;27051;50.376;19.152;2022-12-07T08:08:16;97586.33;;;3.94;67.35
41306;BME280;27051;50.376;19.152;2022-12-07T08:10:42;97588.21;;;3.94;67.14
41306;BME280;27051;50.376;19.152;2022-12-07T08:13:09;97587.87;;;3.86;67.03
41306;BME280;27051;50.376;19.152;2022-12-07T08:15:37;97590.30;;;3.85;67.33
41306;BME280;27051;50.376;19.152;2022-12-07T08:18:05;97593.53;;;3.94;67.38
41306;BME280;27051;50.376;19.152;2022-12-07T08:20:33;97598.50;;;4.06;67.36
41306;BME280;27051;50.376;19.152;2022-12-07T08:23:02;97595.50;;;3.99;67.18
41306;BME280;27051;50.376;19.152;2022-12-07T08:25:28;97602.48;;;4.06;67.27
41306;BME280;27051;50.376;19.152;2022-12-07T08:27:56;97604.78;;;4.10;67.33
41306;BME280;27051;50.376;19.152;2022-12-07T08:30:22;97605.97;;;4.16;67.27
41306;BME280;27051;50.376;19.152;2022-12-07T08:32:49;97604.45;;;4.12;67.16
41306;BME280;27051;50.376;19.152;2022-12-07T08:35:16;97602.76;;;4.16;67.32
41306;BME280;27051;50.376;19.152;2022-12-07T08:37:43;97602.06;;;4.22;67.40
41306;BME280;27051;50.376;19.152;2022-12-07T08:40:11;97606.09;;;4.30;67.31
41306;BME280;27051;50.376;19.152;2022-12-07T08:42:39;97608.34;;;4.26;67.01
41306;BME280;27051;50.376;19.152;2022-12-07T08:45:07;97611.38;;;4.22;66.95
41306;BME280;27051;50.376;19.152;2022-12-07T08:47:38;97611.15;;;4.21;67.07
41306;BME280;27051;50.376;19.152;2022-12-07T08:50:09;97610.82;;;4.22;67.18
41306;BME280;27051;50.376;19.152;2022-12-07T08:52:38;97616.63;;;4.24;67.20
41306;BME280;27051;50.376;19.152;2022-12-07T08:55:11;97619.33;;;4.33;67.24
41306;BME280;27051;50.376;19.152;2022-12-07T08:57:38;97612.81;;;4.28;66.97
41306;BME280;27051;50.376;19.152;2022-12-07T09:00:06;97618.14;;;4.28;67.13
41306;BME280;27051;50.376;19.152;2022-12-07T09:02:33;97620.24;;;4.28;66.96
41306;BME280;27051;50.376;19.152;2022-12-07T09:05:01;97620.53;;;4.18;67.00
41306;BME280;27051;50.376;19.152;2022-12-07T09:07:29;97627.25;;;4.16;67.19
41306;BME280;27051;50.376;19.152;2022-12-07T09:09:57;97622.84;;;4.11;67.09
41306;BME280;27051;50.376;19.152;2022-12-07T09:12:23;97615.28;;;4.16;67.37
41306;BME280;27051;50.376;19.152;2022-12-07T09:14:50;97612.27;;;4.28;67.43
41306;BME280;27051;50.376;19.152;2022-12-07T09:17:16;97609.05;;;4.29;67.27
41306;BME280;27051;50.376;19.152;2022-12-07T09:19:43;97614.03;;;4.22;66.97
41306;BME280;27051;50.376;19.152;2022-12-07T09:22:10;97614.14;;;4.28;67.36
41306;BME280;27051;50.376;19.152;2022-12-07T09:24:37;97607.09;;;4.32;67.26
41306;BME280;27051;50.376;19.152;2022-12-07T09:27:04;97605.47;;;4.33;67.15
41306;BME280;27051;50.376;19.152;2022-12-07T09:29:31;97607.35;;;4.33;67.09
41306;BME280;27051;50.376;19.152;2022-12-07T09:31:57;97609.53;;;4.31;67.16
41306;BME280;27051;50.376;19.152;2022-12-07T09:34:24;97603.44;;;4.30;67.04
41306;BME280;27051;50.376;19.152;2022-12-07T09:36:51;97601.92;;;4.27;67.17
41306;BME280;27051;50.376;19.152;2022-12-07T09:39:17;97595.38;;;4.33;67.16
41306;BME280;27051;50.376;19.152;2022-12-07T09:41:44;97598.97;;;4.37;67.22
41306;BME280;27051;50.376;19.152;2022-12-07T09:44:27;97600.56;;;4.47;67.20
41306;BME280;27051;50.376;19.152;2022-12-07T09:46:52;97582.48;;;4.55;67.22
41306;BME280;27051;50.376;19.152;2022-12-07T09:49:21;97585.32;;;4.59;66.95
41306;BME280;27051;50.376;19.152;2022-12-07T09:52:16;97585.32;;;4.59;67.00
41306;BME280;27051;50.376;19.152;2022-12-07T09:54:30;97588.77;;;4.59;66.86
41306;BME280;27051;50.376;19.152;2022-12-07T09:56:58;97584.84;;;4.56;66.97
41306;BME280;27051;50.376;19.152;2022-12-07T09:59:25;97582.88;;;4.60;66.93
41306;BME280;27051;50.376;19.152;2022-12-07T10:01:52;97565.91;;;4.67;66.98
41306;BME280;27051;50.376;19.152;2022-12-07T10:04:21;97565.91;;;4.67;66.98
41306;BME280;27051;50.376;19.152;2022-12-07T10:06:50;97577.03;;;4.69;66.73
41306;BME280;27051;50.376;19.152;2022-12-07T10:09:19;97574.75;;;4.65;66.88
41306;BME280;27051;50.376;19.152;2022-12-07T10:14:35;97561.53;;;4.71;66.99
41306;BME280;27051;50.376;19.152;2022-12-07T10:20:27;97547.50;;;4.85;67.04
41306;BME280;27051;50.376;19.152;2022-12-07T10:22:59;97543.52;;;4.94;66.92
41306;BME280;27051;50.376;19.152;2022-12-07T10:25:33;97540.77;;;4.96;66.89
41306;BME280;27051;50.376;19.152;2022-12-07T10:30:53;97529.62;;;5.12;67.08
41306;BME280;27051;50.376;19.152;2022-12-07T10:33:37;97529.62;;;5.12;67.08
41306;BME280;27051;50.376;19.152;2022-12-07T10:38:59;97529.89;;;5.19;66.72
41306;BME280;27051;50.376;19.152;2022-12-07T10:41:27;97524.52;;;5.13;66.73
41306;BME280;27051;50.376;19.152;2022-12-07T10:43:56;97524.52;;;5.13;66.77
41306;BME280;27051;50.376;19.152;2022-12-07T10:46:54;97521.94;;;5.10;66.96
41306;BME280;27051;50.376;19.152;2022-12-07T10:55:26;97527.31;;;5.25;66.97
41306;BME280;27051;50.376;19.152;2022-12-07T11:01:32;97522.03;;;5.31;66.93
41306;BME280;27051;50.376;19.152;2022-12-07T11:07:28;97514.20;;;5.26;66.70
41306;BME280;27051;50.376;19.152;2022-12-07T11:11:14;97519.88;;;5.25;66.92
41306;BME280;27051;50.376;19.152;2022-12-07T11:13:16;97517.51;;;5.32;66.92
41306;BME280;27051;50.376;19.152;2022-12-07T11:19:14;97511.16;;;5.30;66.83
41306;BME280;27051;50.376;19.152;2022-12-07T11:21:48;97511.16;;;5.30;66.83
41306;BME280;27051;50.376;19.152;2022-12-07T11:24:25;97503.25;;;5.28;66.89
41306;BME280;27051;50.376;19.152;2022-12-07T11:27:04;97503.47;;;5.29;66.76
41306;BME280;27051;50.376;19.152;2022-12-07T11:41:26;97489.35;;;5.37;66.50
41306;BME280;27051;50.376;19.152;2022-12-07T11:44:06;97488.33;;;5.35;66.70
41306;BME280;27051;50.376;19.152;2022-12-07T11:49:41;97477.19;;;5.42;66.70
41306;BME280;27051;50.376;19.152;2022-12-07T11:52:31;97474.65;;;5.46;66.65
41306;BME280;27051;50.376;19.152;2022-12-07T11:54:59;97478.47;;;5.51;66.81
41306;BME280;27051;50.376;19.152;2022-12-07T11:57:33;97473.56;;;5.76;66.80
41306;BME280;27051;50.376;19.152;2022-12-07T12:00:12;97462.83;;;5.85;65.96
41306;BME280;27051;50.376;19.152;2022-12-07T12:02:45;97462.83;;;5.85;65.96
41306;BME280;27051;50.376;19.152;2022-12-07T12:05:32;97468.54;;;5.90;65.82
41306;BME280;27051;50.376;19.152;2022-12-07T12:08:03;97474.02;;;5.93;65.74
41306;BME280;27051;50.376;19.152;2022-12-07T12:14:00;97479.35;;;6.08;65.83
41306;BME280;27051;50.376;19.152;2022-12-07T12:22:53;97485.03;;;6.27;65.09
41306;BME280;27051;50.376;19.152;2022-12-07T12:33:57;97471.89;;;6.70;63.46
41306;BME280;27051;50.376;19.152;2022-12-07T12:39:13;97462.29;;;6.63;63.91
41306;BME280;27051;50.376;19.152;2022-12-07T12:57:39;97435.31;;;7.53;63.36
41306;BME280;27051;50.376;19.152;2022-12-07T13:00:17;97436.11;;;8.13;60.53
41306;BME280;27051;50.376;19.152;2022-12-07T13:02:52;97432.97;;;8.57;60.66
41306;BME280;27051;50.376;19.152;2022-12-07T13:05:24;97434.02;;;8.53;60.53
41306;BME280;27051;50.376;19.152;2022-12-07T13:10:38;97438.37;;;8.04;61.53
41306;BME280;27051;50.376;19.152;2022-12-07T13:15:48;97448.67;;;7.53;62.03
41306;BME280;27051;50.376;19.152;2022-12-07T13:18:37;97450.09;;;7.32;60.98
41306;BME280;27051;50.376;19.152;2022-12-07T13:29:16;97463.16;;;6.55;62.08
41306;BME280;27051;50.376;19.152;2022-12-07T13:31:52;97456.66;;;6.44;62.55
41306;BME280;27051;50.376;19.152;2022-12-07T13:34:38;97447.48;;;6.33;62.42
41306;BME280;27051;50.376;19.152;2022-12-07T13:37:30;97447.87;;;6.22;62.65
41306;BME280;27051;50.376;19.152;2022-12-07T13:40:17;97444.36;;;6.09;62.29
41306;BME280;27051;50.376;19.152;2022-12-07T13:42:44;97444.94;;;5.94;62.61
41306;BME280;27051;50.376;19.152;2022-12-07T13:45:27;97448.63;;;5.87;62.86
41306;BME280;27051;50.376;19.152;2022-12-07T13:47:58;97450.92;;;5.82;62.47
41306;BME280;27051;50.376;19.152;2022-12-07T13:50:28;97454.80;;;5.79;62.71
41306;BME280;27051;50.376;19.152;2022-12-07T13:52:59;97455.77;;;5.74;62.25
41306;BME280;27051;50.376;19.152;2022-12-07T13:55:28;97458.62;;;5.69;62.60
41306;BME280;27051;50.376;19.152;2022-12-07T13:57:56;97448.97;;;5.56;62.55
41306;BME280;27051;50.376;19.152;2022-12-07T14:00:26;97460.88;;;5.58;62.56
41306;BME280;27051;50.376;19.152;2022-12-07T14:03:00;97461.73;;;5.56;62.81
41306;BME280;27051;50.376;19.152;2022-12-07T14:05:30;97462.30;;;5.56;62.95
41306;BME280;27051;50.376;19.152;2022-12-07T14:10:35;97470.76;;;5.58;62.75
41306;BME280;27051;50.376;19.152;2022-12-07T14:15:52;97483.41;;;5.55;62.25
41306;BME280;27051;50.376;19.152;2022-12-07T14:18:35;97483.41;;;5.55;62.25
41306;BME280;27051;50.376;19.152;2022-12-07T14:23:42;97469.59;;;5.38;62.33
41306;BME280;27051;50.376;19.152;2022-12-07T14:26:12;97484.63;;;5.42;62.09
41306;BME280;27051;50.376;19.152;2022-12-07T14:28:43;97486.35;;;5.38;61.77
41306;BME280;27051;50.376;19.152;2022-12-07T14:31:13;97498.77;;;5.34;62.35
41306;BME280;27051;50.376;19.152;2022-12-07T14:33:41;97494.05;;;5.31;62.44
41306;BME280;27051;50.376;19.152;2022-12-07T14:36:10;97494.40;;;5.21;61.93
41306;BME280;27051;50.376;19.152;2022-12-07T14:38:38;97494.40;;;5.21;61.93
41306;BME280;27051;50.376;19.152;2022-12-07T14:41:10;97499.90;;;5.16;62.53
41306;BME280;27051;50.376;19.152;2022-12-07T14:43:43;97501.87;;;5.13;62.47
41306;BME280;27051;50.376;19.152;2022-12-07T14:46:09;97507.67;;;5.15;62.67
41306;BME280;27051;50.376;19.152;2022-12-07T14:48:36;97506.42;;;5.12;62.19
41306;BME280;27051;50.376;19.152;2022-12-07T14:51:03;97512.14;;;5.08;62.92
41306;BME280;27051;50.376;19.152;2022-12-07T14:53:36;97512.14;;;5.08;62.92
41306;BME280;27051;50.376;19.152;2022-12-07T14:56:06;97508.01;;;5.05;62.80
41306;BME280;27051;50.376;19.152;2022-12-07T14:58:33;97516.13;;;5.08;62.85
41306;BME280;27051;50.376;19.152;2022-12-07T15:01:00;97506.25;;;5.09;62.77
41306;BME280;27051;50.376;19.152;2022-12-07T15:03:27;97511.22;;;5.04;62.57
41306;BME280;27051;50.376;19.152;2022-12-07T15:05:54;97516.08;;;5.02;62.55
41306;BME280;27051;50.376;19.152;2022-12-07T15:08:21;97511.05;;;5.00;62.78
41306;BME280;27051;50.376;19.152;2022-12-07T15:10:48;97514.19;;;5.03;62.59
41306;BME280;27051;50.376;19.152;2022-12-07T15:13:15;97516.86;;;5.03;62.60
41306;BME280;27051;50.376;19.152;2022-12-07T15:15:54;97519.83;;;5.01;62.74
41306;BME280;27051;50.376;19.152;2022-12-07T15:18:23;97524.37;;;5.00;62.34
41306;BME280;27051;50.376;19.152;2022-12-07T15:20:50;97521.57;;;4.97;62.55
41306;BME280;27051;50.376;19.152;2022-12-07T15:23:17;97523.37;;;4.99;62.81
41306;BME280;27051;50.376;19.152;2022-12-07T15:25:45;97524.54;;;5.04;62.82
41306;BME280;27051;50.376;19.152;2022-12-07T15:28:13;97526.88;;;5.06;62.62
41306;BME280;27051;50.376;19.152;2022-12-07T15:30:42;97516.99;;;5.06;62.66